Time;durP1;ratioP1;P1;durP2;ratioP2;P2;SDS_P1;SDS_P2;PMS_P1;PMS_P2;Temp;Humidity;BMP_temperature;BMP_pressure;BME280_temperature;BME280_humidity;BME280_pressure;Samples;Min_cycle;Max_cycle;Signal;HPM_P1;HPM_P2
2022/05/08 00:00:18;;;;;;;15.13;9.07;;;14.50;99.90;;;14.76;84.50;101760.03;5181217;28;20050;-70
2022/05/08 00:02:54;;;;;;;13.30;8.20;;;14.50;99.90;;;14.74;84.36;101756.47;5172846;28;20517;-70
2022/05/08 00:05:26;;;;;;;13.77;8.13;;;14.50;99.90;;;14.69;84.31;101752.78;5179903;28;20414;-69
2022/05/08 00:07:58;;;;;;;14.95;9.48;;;14.40;99.90;;;14.63;84.56;101763.97;5178680;28;20046;-70
2022/05/08 00:10:30;;;;;;;14.48;9.05;;;14.40;99.90;;;14.59;84.46;101761.19;5172984;28;20521;-70
2022/05/08 00:13:04;;;;;;;15.35;8.65;;;14.30;99.90;;;14.53;84.67;101756.63;5178175;28;20384;-70
2022/05/08 00:15:36;;;;;;;15.55;9.95;;;14.30;99.90;;;14.48;84.51;101757.34;5171498;28;20043;-70
2022/05/08 00:18:08;;;;;;;16.17;10.23;;;14.20;99.90;;;14.42;84.94;101754.47;5168475;28;20419;-70
2022/05/08 00:20:40;;;;;;;13.27;8.25;;;14.20;99.90;;;14.40;85.08;101763.16;5172681;28;20390;-69
2022/05/08 00:23:12;;;;;;;15.52;8.48;;;14.10;99.90;;;14.40;85.27;101760.53;5173915;28;20410;-71
2022/05/08 00:25:44;;;;;;;14.07;8.35;;;14.10;99.90;;;14.43;84.98;101764.13;5143472;28;20046;-70
2022/05/08 00:28:18;;;;;;;15.27;8.63;;;14.10;99.90;;;14.40;84.80;101770.13;5144142;28;20415;-69
2022/05/08 00:30:50;;;;;;;14.60;8.95;;;14.10;99.90;;;14.38;84.75;101770.09;5164134;28;20050;-70
2022/05/08 00:33:22;;;;;;;16.38;9.57;;;14.10;99.90;;;14.36;85.19;101765.63;5163921;28;20050;-70
2022/05/08 00:35:54;;;;;;;12.07;8.32;;;14.10;99.90;;;14.30;84.62;101765.41;5164286;28;20057;-70
2022/05/08 00:38:26;;;;;;;13.82;8.98;;;14.10;99.90;;;14.23;84.66;101772.19;5163819;28;20451;-70
2022/05/08 00:40:58;;;;;;;14.98;9.15;;;14.00;99.90;;;14.17;84.59;101771.97;5164081;28;20057;-69
2022/05/08 00:43:34;;;;;;;15.70;8.27;;;13.90;99.90;;;14.11;84.99;101770.00;5163544;28;20050;-70
2022/05/08 00:46:09;;;;;;;13.75;9.35;;;13.90;99.90;;;14.07;84.73;101780.31;5163828;28;20046;-70
2022/05/08 00:48:42;;;;;;;13.35;8.23;;;13.80;99.90;;;14.01;84.99;101765.25;5163630;28;20134;-70
2022/05/08 00:51:17;;;;;;;12.95;8.57;;;13.80;99.90;;;13.98;85.24;101764.28;5163404;28;20050;-70
2022/05/08 00:53:53;;;;;;;13.88;8.38;;;13.80;99.90;;;13.95;85.41;101765.03;5152817;28;20047;-69
2022/05/08 00:56:25;;;;;;;14.10;8.85;;;13.70;99.90;;;13.92;85.54;101758.81;5143622;28;20097;-69
2022/05/08 00:58:58;;;;;;;17.27;9.20;;;13.70;99.90;;;13.90;85.55;101761.38;5147412;28;20088;-70
2022/05/08 01:01:30;;;;;;;14.45;9.43;;;13.70;99.90;;;13.84;85.80;101756.78;5152467;28;20098;-70
2022/05/08 01:04:03;;;;;;;15.18;9.30;;;13.60;99.90;;;13.81;85.94;101756.66;5145117;28;20043;-70
2022/05/08 01:06:35;;;;;;;15.15;8.40;;;13.60;99.90;;;13.80;86.71;101754.88;5151174;28;20131;-70
2022/05/08 01:09:07;;;;;;;14.65;8.82;;;13.60;99.90;;;13.81;87.16;101756.66;5143324;28;20069;-69
2022/05/08 01:11:39;;;;;;;16.38;9.57;;;13.60;99.90;;;13.83;87.13;101754.13;5155155;28;20133;-69
2022/05/08 01:14:14;;;;;;;16.27;9.32;;;13.60;99.90;;;13.84;87.61;101751.56;5142866;28;20158;-71
2022/05/08 01:16:46;;;;;;;15.80;9.45;;;13.60;99.90;;;13.85;87.32;101760.31;5146734;28;20051;-70
2022/05/08 01:19:18;;;;;;;14.80;8.85;;;13.60;99.90;;;13.87;87.93;101756.00;5155268;28;20042;-70
2022/05/08 01:21:52;;;;;;;17.55;9.70;;;13.60;99.90;;;13.86;87.72;101759.47;5146206;28;20055;-70
2022/05/08 01:24:24;;;;;;;16.52;9.98;;;13.60;99.90;;;13.86;87.50;101756.84;5147270;28;20054;-70
2022/05/08 01:26:56;;;;;;;17.73;9.90;;;13.60;99.90;;;13.88;87.89;101756.91;5165960;28;20053;-69
2022/05/08 01:29:28;;;;;;;14.93;8.90;;;13.60;99.90;;;13.88;88.08;101757.78;5162578;28;20056;-69
2022/05/08 01:32:01;;;;;;;18.20;9.05;;;13.60;99.90;;;13.88;88.06;101757.78;5145694;28;20575;-70
2022/05/08 01:34:33;;;;;;;17.20;9.50;;;13.60;99.90;;;13.88;88.20;101751.66;5147240;28;20475;-70
2022/05/08 01:37:06;;;;;;;17.77;9.43;;;13.70;99.90;;;13.88;87.93;101756.91;5165821;28;20050;-69
2022/05/08 01:39:38;;;;;;;16.20;9.20;;;13.60;99.90;;;13.87;88.15;101760.34;5162914;28;20068;-70
2022/05/08 01:42:11;;;;;;;15.77;9.00;;;13.60;99.90;;;13.87;88.05;101755.13;5154676;28;20128;-70
2022/05/08 01:44:43;;;;;;;16.67;8.90;;;13.60;99.90;;;13.85;88.23;101762.94;5153272;28;20427;-70
2022/05/08 01:50:06;;;;;;;16.45;9.07;;;13.60;99.90;;;13.84;88.62;101767.28;5145594;28;20062;-69
2022/05/08 01:52:40;;;;;;;15.48;9.07;;;13.60;99.90;;;13.85;89.05;101768.16;5148164;28;20038;-70
2022/05/08 01:55:12;;;;;;;17.45;9.80;;;13.60;99.90;;;13.85;88.90;101768.16;5157825;28;20050;-70
2022/05/08 01:57:45;;;;;;;18.60;9.10;;;13.60;99.90;;;13.87;89.33;101776.09;5161751;28;20050;-69
2022/05/08 02:00:18;;;;;;;17.40;9.75;;;13.60;99.90;;;13.87;89.06;101781.31;5154688;28;20050;-69
2022/05/08 02:02:51;;;;;;;19.15;9.05;;;13.60;99.90;;;13.84;88.87;101782.13;5153472;28;20039;-69
2022/05/08 02:05:24;;;;;;;14.68;8.93;;;13.60;99.90;;;13.83;89.04;101785.56;5162255;28;20141;-70
2022/05/08 02:07:57;;;;;;;14.80;8.93;;;13.60;99.90;;;13.79;88.88;101781.94;5166224;28;20050;-70
2022/05/08 02:10:29;;;;;;;13.45;7.43;;;13.50;99.90;;;13.77;88.71;101791.47;5166334;28;20392;-69
2022/05/08 02:13:02;;;;;;;15.70;8.85;;;13.50;99.90;;;13.73;88.86;101784.31;5165509;28;20046;-70
2022/05/08 02:15:34;;;;;;;15.90;9.18;;;13.50;99.90;;;13.69;88.93;101782.44;5166280;28;20081;-70
2022/05/08 02:18:08;;;;;;;15.18;8.95;;;13.40;99.90;;;13.66;88.74;101791.91;5166124;28;20047;-69
2022/05/08 02:20:41;;;;;;;16.20;8.63;;;13.40;99.90;;;13.62;88.68;101785.63;5166156;28;20042;-69
2022/05/08 02:23:14;;;;;;;15.10;8.70;;;13.40;99.90;;;13.58;88.38;101787.25;5165613;28;20122;-69
2022/05/08 02:25:46;;;;;;;15.35;8.93;;;13.30;99.90;;;13.55;88.56;101783.63;5164999;28;20050;-69
2022/05/08 02:28:18;;;;;;;14.95;8.27;;;13.30;99.90;;;13.50;88.48;101786.09;5165530;28;20070;-70
2022/05/08 02:30:50;;;;;;;15.98;9.20;;;13.30;99.90;;;13.46;88.52;101784.16;5166008;28;20080;-69
2022/05/08 02:33:22;;;;;;;17.52;8.63;;;13.30;99.90;;;13.43;88.56;101783.16;5165932;28;20237;-70
2022/05/08 02:35:54;;;;;;;17.73;9.98;;;13.20;99.90;;;13.39;88.57;101784.75;5165932;28;20565;-68
2022/05/08 02:38:28;;;;;;;20.98;9.68;;;13.20;99.90;;;13.36;88.83;101786.34;5165541;28;20357;-69
2022/05/08 02:41:00;;;;;;;18.23;10.50;;;13.20;99.90;;;13.33;89.13;101788.88;5165496;28;20054;-69
2022/05/08 02:43:32;;;;;;;17.15;9.93;;;13.10;99.90;;;13.30;88.92;101784.38;5165133;28;20062;-71
2022/05/08 02:46:04;;;;;;;18.95;9.82;;;13.10;99.90;;;13.27;89.23;101793.03;5165622;28;20055;-70
2022/05/08 02:48:35;;;;;;;16.83;9.88;;;13.10;99.90;;;13.24;89.12;101792.91;5165058;28;20133;-69
2022/05/08 02:51:07;;;;;;;18.83;9.68;;;13.00;99.90;;;13.23;88.91;101793.72;5165525;28;20058;-70
2022/05/08 02:53:41;;;;;;;16.08;9.43;;;13.00;99.90;;;13.21;89.16;101798.03;5166016;28;20069;-69
2022/05/08 02:59:03;;;;;;;16.98;9.00;;;13.00;99.90;;;13.16;89.09;101803.88;5165025;28;20061;-70
2022/05/08 03:01:35;;;;;;;19.35;9.52;;;12.90;99.90;;;13.10;89.10;101794.03;5164947;28;20049;-70
2022/05/08 03:04:06;;;;;;;15.98;9.18;;;12.90;99.90;;;13.08;89.38;101792.19;5165317;28;20046;-70
2022/05/08 03:06:39;;;;;;;16.50;8.43;;;12.90;99.90;;;13.05;89.17;101800.84;5165301;28;20414;-70
2022/05/08 03:09:12;;;;;;;15.65;8.90;;;12.90;99.90;;;13.03;89.46;101797.25;5164821;28;20057;-70
2022/05/08 03:11:44;;;;;;;14.77;8.77;;;12.80;99.90;;;13.01;89.48;101793.69;5164834;28;20050;-69
2022/05/08 03:14:17;;;;;;;15.25;8.73;;;12.80;99.90;;;12.97;89.18;101800.50;5165287;28;20047;-70
2022/05/08 03:16:49;;;;;;;18.63;9.68;;;12.80;99.90;;;12.93;89.36;101802.94;5164743;28;20046;-70
2022/05/08 03:19:21;;;;;;;15.98;9.18;;;12.80;99.90;;;12.89;89.44;101808.88;5164888;28;20046;-70
2022/05/08 03:21:53;;;;;;;17.15;8.50;;;12.70;99.90;;;12.87;89.81;101800.97;5164241;28;20418;-70
2022/05/08 03:24:28;;;;;;;14.88;8.50;;;12.70;99.90;;;12.86;89.73;101804.41;5164494;28;20062;-70
2022/05/08 03:27:00;;;;;;;14.95;8.90;;;12.70;99.90;;;12.85;89.92;101804.38;5164704;28;20056;-70
2022/05/08 03:29:32;;;;;;;16.40;9.38;;;12.70;99.90;;;12.83;89.71;101808.63;5164710;28;20134;-70
2022/05/08 03:32:06;;;;;;;18.25;9.77;;;12.60;99.90;;;12.81;89.65;101812.91;5165013;28;20137;-70
2022/05/08 03:34:38;;;;;;;17.48;9.05;;;12.60;99.90;;;12.76;89.67;101813.59;5164952;28;20090;-71
2022/05/08 03:37:10;;;;;;;14.27;8.45;;;12.60;99.90;;;12.73;90.04;101808.25;5164519;28;20551;-70
2022/05/08 03:39:43;;;;;;;15.48;8.68;;;12.60;99.90;;;12.72;89.96;101806.47;5164518;28;20173;-69
2022/05/08 03:42:15;;;;;;;18.85;9.80;;;12.50;99.90;;;12.68;90.07;101811.50;5164242;28;20043;-69
2022/05/08 03:44:47;;;;;;;16.45;9.35;;;12.50;99.90;;;12.66;89.88;101811.44;5164443;28;20129;-70
2022/05/08 03:47:19;;;;;;;16.38;9.30;;;12.50;99.90;;;12.66;90.22;101810.53;5164871;28;20137;-70
2022/05/08 03:49:51;;;;;;;17.48;9.65;;;12.50;99.90;;;12.64;89.98;101818.31;5165517;28;20053;-70
2022/05/08 03:52:23;;;;;;;16.75;8.98;;;12.40;99.90;;;12.65;90.45;101809.66;5163625;28;20491;-70
2022/05/08 03:54:57;;;;;;;16.83;9.05;;;12.50;99.90;;;12.66;90.41;101813.16;5164099;28;20423;-70
2022/05/08 03:57:29;;;;;;;16.73;8.52;;;12.50;99.90;;;12.68;90.59;101809.75;5164045;28;20775;-70
2022/05/08 04:00:01;;;;;;;19.85;10.25;;;12.50;99.90;;;12.68;90.35;101815.00;5164475;28;20534;-70
2022/05/08 04:02:33;;;;;;;19.75;9.60;;;12.50;99.90;;;12.68;90.41;101819.34;5164228;28;20675;-69
2022/05/08 04:05:06;;;;;;;17.35;9.95;;;12.50;99.90;;;12.68;90.30;101819.34;5164206;28;20050;-70
2022/05/08 04:07:38;;;;;;;18.52;9.98;;;12.50;99.90;;;12.67;90.50;101817.56;5163968;28;20050;-71
2022/05/08 04:10:13;;;;;;;19.17;9.68;;;12.50;99.90;;;12.63;90.39;101824.38;5164561;28;20053;-69
2022/05/08 04:12:46;;;;;;;19.23;10.50;;;12.40;99.90;;;12.63;90.55;101821.75;5163921;28;20058;-70
2022/05/08 04:18:07;;;;;;;18.90;10.15;;;12.40;99.90;;;12.61;90.63;101812.94;5143451;28;20046;-70
2022/05/08 04:20:39;;;;;;;19.70;10.02;;;12.40;99.90;;;12.62;91.04;101819.06;5163747;28;20051;-70
2022/05/08 04:26:02;;;;;;;17.02;9.48;;;12.50;99.90;;;12.65;91.11;101817.50;5164022;28;20105;-70
2022/05/08 04:28:34;;;;;;;18.00;10.30;;;12.40;99.90;;;12.66;91.38;101824.50;5163890;28;20062;-70
2022/05/08 04:31:06;;;;;;;17.20;9.98;;;12.50;99.90;;;12.68;91.16;101825.47;5164106;28;20053;-70
2022/05/08 04:33:38;;;;;;;19.23;9.68;;;12.50;99.90;;;12.71;91.06;101825.63;5163457;28;20056;-70
2022/05/08 04:36:10;;;;;;;17.98;9.93;;;12.50;99.90;;;12.73;91.19;101826.56;5164382;28;20057;-70
2022/05/08 04:38:42;;;;;;;20.92;10.50;;;12.50;99.90;;;12.83;91.23;101834.78;5163760;28;20058;-70
2022/05/08 04:41:15;;;;;;;19.90;10.15;;;12.60;99.90;;;12.91;91.28;101838.59;5163610;28;20050;-70
2022/05/08 04:43:47;;;;;;;16.92;9.68;;;12.70;99.90;;;13.04;91.55;101838.31;5163560;28;20046;-71
2022/05/08 04:46:19;;;;;;;21.98;10.85;;;12.80;99.90;;;13.14;91.00;101840.47;5163710;28;20054;-69
2022/05/08 04:48:51;;;;;;;21.25;10.75;;;12.90;99.90;;;13.29;91.48;101843.72;5163851;28;20060;-69
2022/05/08 04:51:23;;;;;;;18.65;10.52;;;13.00;99.90;;;13.46;91.27;101848.75;5167323;28;20050;-70
2022/05/08 04:53:55;;;;;;;23.02;11.70;;;13.20;99.90;;;13.56;90.88;101849.19;5167250;28;20056;-71
2022/05/08 04:56:29;;;;;;;24.77;11.73;;;13.30;99.90;;;13.62;90.72;101843.28;5167733;28;20050;-70
2022/05/08 04:59:01;;;;;;;21.80;11.48;;;13.40;99.90;;;13.67;91.10;101846.97;5167529;28;20050;-69
2022/05/08 05:01:34;;;;;;;24.60;12.13;;;13.50;99.90;;;13.71;91.52;101843.66;5167441;28;20072;-70
2022/05/08 05:04:06;;;;;;;23.60;11.38;;;13.50;99.90;;;13.78;91.84;101845.66;5167262;28;20144;-70
2022/05/08 05:06:38;;;;;;;23.27;11.95;;;13.50;99.90;;;13.91;92.26;101857.53;5167395;28;20488;-70
2022/05/08 05:09:10;;;;;;;22.90;11.70;;;13.60;99.90;;;14.08;92.71;101850.28;5167505;28;20161;-70
2022/05/08 05:11:43;;;;;;;26.80;11.00;;;13.80;99.90;;;14.30;93.52;101855.47;5167009;28;20392;-70
2022/05/08 05:14:15;;;;;;;22.83;12.10;;;13.90;99.90;;;14.58;93.76;101861.75;5167155;28;20046;-70
2022/05/08 05:16:47;;;;;;;20.60;10.93;;;14.10;99.90;;;14.83;93.07;101861.75;5167513;28;20142;-67
2022/05/08 05:19:19;;;;;;;19.15;10.00;;;14.40;99.90;;;15.05;91.69;101867.72;5166911;28;20054;-70
2022/05/08 05:21:51;;;;;;;18.20;10.05;;;14.60;99.90;;;15.26;90.28;101870.16;5166716;28;20050;-70
2022/05/08 05:24:23;;;;;;;19.02;9.25;;;14.80;99.90;;;15.54;89.09;101874.59;5177796;23;20050;-85
2022/05/08 05:26:56;;;;;;;17.83;10.05;;;15.00;99.90;;;15.73;87.11;101884.88;5158107;28;20051;-86
2022/05/08 05:29:28;;;;;;;14.82;9.18;;;15.20;99.90;;;15.84;85.57;101883.44;5155669;28;20057;-84
2022/05/08 05:32:00;;;;;;;16.52;9.57;;;15.40;99.90;;;15.97;84.78;101892.59;5156638;28;20080;-84
2022/05/08 05:34:32;;;;;;;17.40;9.10;;;15.50;99.90;;;16.05;83.08;101890.22;5158764;28;20054;-85
2022/05/08 05:37:04;;;;;;;16.70;9.55;;;15.60;99.90;;;16.00;82.28;101887.44;5157079;28;20057;-85
2022/05/08 05:39:36;;;;;;;16.10;9.55;;;15.60;99.90;;;15.84;81.79;101893.97;5154068;28;20061;-84
2022/05/08 05:42:10;;;;;;;17.13;8.88;;;15.50;99.90;;;15.78;81.88;101888.56;5153251;28;20390;-84
2022/05/08 05:44:42;;;;;;;15.85;8.45;;;15.50;99.90;;;15.71;82.00;101895.34;5153589;28;20055;-85
2022/05/08 05:50:03;;;;;;;14.65;8.35;;;15.40;99.90;;;15.66;82.04;101907.44;5153710;28;20082;-85
2022/05/08 05:52:36;;;;;;;14.57;8.27;;;15.40;99.90;;;15.71;81.79;101900.63;5152795;28;20051;-84
2022/05/08 05:55:09;;;;;;;13.82;7.70;;;15.40;99.90;;;15.92;82.05;101905.63;5153539;28;20105;-84
2022/05/08 05:57:43;;;;;;;13.38;6.90;;;15.50;99.90;;;16.18;81.71;101902.91;5153649;28;20047;-84
2022/05/08 06:00:18;;;;;;;15.70;8.45;;;15.70;99.90;;;16.39;80.64;101908.78;5153704;28;20051;-83
2022/05/08 06:02:50;;;;;;;13.75;7.85;;;15.90;99.90;;;16.66;78.85;101910.41;5153610;28;20054;-85
2022/05/08 06:05:22;;;;;;;15.23;7.63;;;16.10;99.90;;;16.92;77.13;101908.50;5154453;28;20055;-84
2022/05/08 06:07:54;;;;;;;14.98;8.95;;;16.30;99.90;;;17.19;75.31;101916.22;5154537;28;20563;-84
2022/05/08 06:10:28;;;;;;;13.40;7.65;;;16.60;99.90;;;17.42;74.03;101915.06;5154534;28;20102;-83
2022/05/08 06:13:01;;;;;;;14.05;8.93;;;16.80;99.90;;;17.52;72.55;101927.59;5153695;28;20047;-82
2022/05/08 06:15:33;;;;;;;17.42;8.38;;;16.90;99.90;;;17.59;72.14;101928.63;5153926;28;20436;-83
2022/05/08 06:18:05;;;;;;;14.50;8.13;;;17.00;99.90;;;17.81;71.93;101935.38;5153887;28;20047;-82
2022/05/08 06:20:38;;;;;;;13.07;7.78;;;17.20;99.90;;;18.08;70.60;101930.69;5153857;28;20114;-83
2022/05/08 06:23:10;;;;;;;14.85;7.93;;;17.40;99.90;;;18.36;68.93;101932.19;5153835;28;20394;-83
2022/05/08 06:25:42;;;;;;;14.50;8.15;;;17.60;99.90;;;18.52;67.86;101933.41;5152471;28;20073;-83
2022/05/08 06:28:19;;;;;;;13.43;7.75;;;17.80;99.90;;;18.69;66.63;101932.00;5152092;28;20050;-83
2022/05/08 06:30:51;;;;;;;12.20;6.80;;;18.00;99.90;;;18.91;66.20;101932.44;5153331;28;20054;-83
2022/05/08 06:33:23;;;;;;;16.45;8.55;;;18.10;99.90;;;19.05;65.12;101936.22;5151336;28;20058;-82
2022/05/08 06:35:55;;;;;;;16.63;8.32;;;18.30;99.90;;;19.27;64.49;101941.88;5151906;28;20517;-83
2022/05/08 06:38:27;;;;;;;9.18;5.15;;;18.40;99.90;;;19.56;62.94;101939.69;5152241;28;20530;-86
2022/05/08 06:40:59;;;;;;;8.20;5.18;;;18.70;99.90;;;19.87;59.24;101941.97;5156248;28;20059;-85
2022/05/08 06:43:33;;;;;;;10.95;5.82;;;19.00;98.30;;;20.30;57.18;101935.53;5154050;28;20462;-84
2022/05/08 06:46:05;;;;;;;9.48;5.47;;;19.40;96.70;;;20.57;56.12;101945.59;5154681;28;20053;-86
2022/05/08 06:48:37;;;;;;;14.60;7.85;;;19.70;95.70;;;20.41;56.27;101948.00;5153293;28;20141;-87
2022/05/08 06:51:09;;;;;;;14.77;7.75;;;19.80;95.10;;;20.05;56.94;101958.13;5154739;28;20057;-86
2022/05/08 06:53:43;;;;;;;14.23;7.88;;;19.60;94.90;;;19.63;57.98;101955.75;5153474;28;20078;-84
2022/05/08 06:56:16;;;;;;;14.23;8.02;;;19.30;95.00;;;19.29;59.05;101953.34;5153835;28;20138;-85
2022/05/08 07:01:40;;;;;;;13.63;7.63;;;18.80;96.00;;;19.02;60.48;101956.38;5154821;28;20047;-85
2022/05/08 07:04:13;;;;;;;11.52;7.28;;;18.70;96.50;;;18.93;61.03;101957.13;5155301;28;20055;-86
2022/05/08 07:06:45;;;;;;;13.32;7.32;;;18.60;96.90;;;18.85;61.44;101956.97;5156326;28;20050;-87
2022/05/08 07:09:17;;;;;;;12.80;6.07;;;18.50;97.30;;;19.04;62.25;101958.22;5158392;28;20062;-85
2022/05/08 07:11:49;;;;;;;16.52;8.18;;;18.50;98.00;;;19.61;61.91;101952.16;5163837;28;20048;-86
2022/05/08 07:14:22;;;;;;;15.10;8.73;;;18.80;98.60;;;20.16;59.53;101950.34;5165016;28;20047;-86
2022/05/08 07:16:54;;;;;;;11.60;6.95;;;19.20;97.90;;;20.64;57.50;101958.91;5172246;28;20081;-85
2022/05/08 07:19:26;;;;;;;13.98;7.63;;;19.50;96.80;;;20.85;56.61;101964.47;5164747;28;20052;-85
2022/05/08 07:21:59;;;;;;;14.02;7.43;;;19.80;95.90;;;20.99;55.29;101961.94;5165796;28;20141;-84
2022/05/08 07:24:31;;;;;;;13.68;7.47;;;20.00;94.80;;;20.75;55.32;101957.28;5166501;28;20084;-83
2022/05/08 07:27:04;;;;;;;12.52;6.55;;;20.00;94.10;;;20.48;55.82;101973.75;5149212;28;20043;-85
2022/05/08 07:29:37;;;;;;;17.42;7.40;;;19.90;93.80;;;20.20;56.51;101975.97;5153848;28;20057;-87
2022/05/08 07:32:10;;;;;;;15.63;7.10;;;19.80;93.80;;;19.97;56.82;101974.78;5152862;28;20051;-85
2022/05/08 07:37:32;;;;;;;15.48;7.40;;;19.40;94.40;;;19.88;57.90;101978.16;5148223;28;20053;-85
2022/05/08 07:40:05;;;;;;;11.25;6.18;;;19.30;94.80;;;19.85;57.50;101985.16;5150974;28;20050;-85
2022/05/08 07:42:37;;;;;;;15.30;6.63;;;19.30;94.80;;;19.73;57.87;101980.56;5149489;28;20062;-84
2022/05/08 07:45:11;;;;;;;12.85;7.38;;;19.20;94.80;;;19.60;58.23;101979.47;5154191;28;20050;-86
2022/05/08 07:47:43;;;;;;;11.98;7.28;;;19.10;94.90;;;19.90;58.08;101976.44;5154596;28;20143;-85
2022/05/08 07:50:15;;;;;;;14.75;8.10;;;19.20;95.40;;;20.08;56.79;101991.69;5151928;28;20054;-84
2022/05/08 07:52:47;;;;;;;13.05;7.57;;;19.30;94.70;;;20.13;56.90;101997.06;5152978;28;20051;-88
2022/05/08 07:55:19;;;;;;;13.63;7.75;;;19.40;94.80;;;20.10;56.88;102000.56;5151645;28;20053;-82
2022/05/08 07:57:51;;;;;;;10.77;6.70;;;19.30;94.60;;;20.00;56.87;101995.97;5151895;28;20062;-86
2022/05/08 08:00:25;;;;;;;14.50;7.38;;;19.30;94.40;;;19.86;57.19;101993.13;5146513;28;20050;-83
2022/05/08 08:02:57;;;;;;;19.00;8.73;;;19.30;94.40;;;19.73;57.53;101992.03;5143966;28;20049;-83
2022/05/08 08:05:29;;;;;;;15.20;6.82;;;19.20;94.50;;;19.68;58.12;102000.75;5150853;28;20496;-80
2022/05/08 08:08:01;;;;;;;14.52;7.95;;;19.10;94.90;;;19.59;58.61;101996.22;5144578;28;20057;-81
2022/05/08 08:10:33;;;;;;;16.77;8.23;;;19.00;95.10;;;19.54;58.33;101997.84;5108852;28;20053;-80
2022/05/08 08:13:05;;;;;;;16.13;7.85;;;19.00;95.00;;;19.42;58.86;102001.16;5105164;28;20127;-80
2022/05/08 08:15:39;;;;;;;14.32;6.97;;;18.90;95.10;;;19.38;58.86;102003.75;5147276;28;20055;-79
2022/05/08 08:18:11;;;;;;;15.45;8.02;;;18.90;95.30;;;19.41;59.14;102009.09;5158460;28;20413;-80
2022/05/08 08:20:44;;;;;;;16.40;8.00;;;18.90;95.40;;;19.42;59.01;102005.56;5157711;28;20049;-80
2022/05/08 08:23:16;;;;;;;13.25;7.28;;;18.90;95.40;;;19.36;59.03;102011.63;5149008;28;20053;-80
2022/05/08 08:25:48;;;;;;;13.65;7.60;;;18.80;95.40;;;19.23;59.44;102005.28;5152134;28;20050;-81
2022/05/08 08:28:20;;;;;;;17.17;8.10;;;18.80;95.50;;;19.23;59.44;102012.28;5154776;28;20110;-82
2022/05/08 08:30:53;;;;;;;15.18;7.47;;;18.80;95.50;;;19.60;59.31;102021.81;5153567;28;20497;-82
2022/05/08 08:33:26;;;;;;;13.57;6.95;;;18.90;95.80;;;20.17;56.97;102015.66;5162066;28;20538;-82
2022/05/08 08:35:58;;;;;;;13.65;6.82;;;19.10;95.30;;;20.43;55.25;102026.63;5151632;28;20497;-81
2022/05/08 08:38:30;;;;;;;13.90;6.97;;;19.30;94.40;;;20.41;55.10;102022.16;5147961;28;20051;-81
2022/05/08 08:41:04;;;;;;;12.95;6.30;;;19.50;93.90;;;20.32;55.60;102030.88;5153873;28;20047;-81
2022/05/08 08:49:22;;;;;;;15.80;7.82;;;19.50;93.60;;;20.63;55.03;102018.09;5153680;28;20050;-79
2022/05/08 08:51:54;;;;;;;13.27;6.53;;;19.70;93.60;;;21.35;54.09;102017.16;5152812;28;20079;-81
2022/05/08 08:54:26;;;;;;;17.13;8.15;;;20.00;93.70;;;21.71;52.23;102018.34;5150130;28;20078;-80
2022/05/08 08:56:58;;;;;;;14.30;7.40;;;20.30;92.60;;;21.66;52.12;102021.00;5153719;28;20066;-80
2022/05/08 08:59:31;;;;;;;12.00;6.72;;;20.40;92.00;;;21.64;51.92;102022.72;5156483;28;20058;-79
2022/05/08 09:02:04;;;;;;;14.05;7.57;;;20.50;91.60;;;21.62;52.04;102019.19;5155665;28;20115;-80
2022/05/08 09:04:36;;;;;;;13.15;7.30;;;20.50;91.40;;;21.52;52.36;102014.69;5150835;28;20042;-79
2022/05/08 09:07:42;;;;;;;13.18;7.45;;;20.50;91.20;;;21.61;52.08;102025.38;5155024;28;20054;-85
2022/05/08 09:10:19;;;;;;;16.50;7.90;;;20.60;90.90;;;22.22;51.10;102012.56;5157268;28;20065;-84
2022/05/08 09:13:06;;;;;;;15.05;7.82;;;20.90;91.10;;;22.78;49.81;102021.72;5158640;28;20059;-85
2022/05/08 09:15:39;;;;;;;12.90;7.40;;;21.20;90.40;;;23.38;48.56;102023.66;5155467;28;20059;-86
2022/05/08 09:18:13;;;;;;;13.88;7.78;;;21.60;89.80;;;23.76;47.46;102012.19;5152396;28;20079;-86
2022/05/08 09:20:48;;;;;;;14.80;8.07;;;21.90;87.90;;;24.15;46.27;102024.56;5155189;28;20110;-90
2022/05/08 09:23:21;;;;;;;16.75;7.60;;;22.30;86.20;;;24.37;45.77;102025.44;5155589;28;20568;-90
2022/05/08 09:25:56;;;;;;;14.15;8.23;;;22.60;83.60;;;24.37;44.59;102022.78;5160982;28;20493;-86
2022/05/08 09:28:31;;;;;;;13.98;7.60;;;22.80;80.80;;;24.00;45.39;102016.63;5156915;28;20065;-82
2022/05/08 09:31:06;;;;;;;17.23;8.60;;;22.70;80.00;;;23.85;46.48;102009.50;5153421;28;20050;-87
2022/05/08 09:33:42;;;;;;;15.10;8.18;;;22.70;80.40;;;23.89;46.69;102010.41;5153114;28;20061;-85
2022/05/08 09:36:20;;;;;;;12.93;7.10;;;22.90;80.30;;;23.91;46.04;102005.97;5154378;28;20504;-86
2022/05/08 09:38:54;;;;;;;12.63;7.53;;;22.90;79.10;;;23.80;45.26;102009.53;5154926;28;20054;-82
2022/05/08 09:41:28;;;;;;;15.40;7.43;;;22.80;77.20;;;23.74;46.09;102011.31;5155469;28;20085;-86
2022/05/08 09:44:11;;;;;;;12.50;6.60;;;22.80;78.10;;;23.79;46.35;102005.06;5156449;28;20532;-87
2022/05/08 09:46:45;;;;;;;12.65;6.38;;;22.80;78.30;;;23.82;45.55;102004.22;5156960;28;20055;-85
2022/05/08 09:49:21;;;;;;;14.18;6.60;;;22.80;77.10;;;23.92;45.42;102000.63;5155861;28;20138;-83
2022/05/08 09:51:54;;;;;;;13.00;6.95;;;22.90;77.20;;;23.92;45.30;102000.63;5153137;28;20058;-84
2022/05/08 09:54:27;;;;;;;12.98;7.07;;;22.90;76.40;;;23.85;45.22;102001.53;5153810;28;20480;-84
2022/05/08 09:57:01;;;;;;;15.23;7.20;;;22.90;76.10;;;23.99;45.46;102007.72;5154369;28;20133;-84
2022/05/08 09:59:34;;;;;;;12.15;6.03;;;23.00;76.10;;;24.12;44.66;102002.38;5153775;28;20053;-84
2022/05/08 10:02:06;;;;;;;9.45;5.93;;;23.10;75.30;;;24.20;44.57;102005.94;5153457;28;20062;-84
2022/05/08 10:04:40;;;;;;;9.73;5.43;;;23.10;75.10;;;24.15;44.91;102002.38;5153577;28;20058;-85
2022/05/08 10:07:13;;;;;;;14.75;6.70;;;23.20;74.80;;;24.17;44.50;102000.59;5153362;28;20059;-84
2022/05/08 10:15:37;;;;;;;12.15;6.38;;;23.30;73.40;;;24.36;44.30;101994.34;5153298;28;20054;-84
2022/05/08 10:18:26;;;;;;;10.23;4.53;;;23.40;73.70;;;24.28;44.00;101985.47;5153261;28;20055;-83
2022/05/08 10:21:06;;;;;;;8.05;4.43;;;23.30;73.00;;;23.96;43.98;101989.09;5153923;28;20058;-83
2022/05/08 10:23:41;;;;;;;10.00;4.97;;;23.20;72.40;;;23.55;44.54;101983.78;5158080;28;20081;-82
2022/05/08 10:26:18;;;;;;;13.07;5.43;;;22.90;72.30;;;23.43;45.72;101984.66;5152381;28;20060;-81
2022/05/08 10:29:14;;;;;;;9.13;4.55;;;22.80;73.70;;;23.43;45.75;101984.66;5151841;28;20047;-84
2022/05/08 10:31:48;;;;;;;10.27;4.55;;;22.70;74.50;;;23.47;45.05;101985.53;5146430;28;20058;-83
2022/05/08 10:34:32;;;;;;;14.00;7.55;;;22.60;73.50;;;23.62;45.23;101984.69;5151948;28;20047;-84
2022/05/08 10:37:28;;;;;;;14.80;9.45;;;22.60;73.80;;;23.71;45.45;101980.25;5151672;28;20101;-85
2022/05/08 10:40:01;;;;;;;17.50;7.63;;;22.80;74.10;;;23.47;45.04;101973.13;5151258;28;20078;-83
2022/05/08 10:42:55;;;;;;;11.82;5.13;;;22.70;73.20;;;23.34;45.56;101973.09;5148424;28;20500;-81
2022/05/08 10:45:43;;;;;;;9.30;4.55;;;22.60;73.60;;;23.62;45.71;101974.06;5144741;28;20054;-83
2022/05/08 10:48:17;;;;;;;10.45;4.70;;;22.80;74.50;;;23.86;45.12;101973.13;5149068;28;20043;-84
2022/05/08 10:50:51;;;;;;;10.93;4.47;;;22.90;73.80;;;24.00;45.23;101966.91;5152192;28;20050;-84
2022/05/08 10:53:29;;;;;;;11.23;5.80;;;23.00;74.00;;;24.18;44.96;101970.38;5151962;28;20053;-83
2022/05/08 10:56:05;;;;;;;9.00;5.00;;;23.10;73.70;;;24.07;44.29;101958.00;5151751;28;20518;-84
2022/05/08 10:58:40;;;;;;;9.52;4.53;;;23.10;72.40;;;23.96;44.48;101967.78;5143904;28;20057;-83
2022/05/08 11:01:12;;;;;;;8.75;4.63;;;23.20;72.50;;;23.79;44.52;101962.47;5151879;28;20093;-82